sensor_id;sensor_type;location;lat;lon;timestamp;P1;durP1;ratioP1;P2;durP2;ratioP2
62903;SDS011;49000;50.698;13.322;2022-08-20T00:00:27;41.30;;;27.77;;
62903;SDS011;49000;50.698;13.322;2022-08-20T00:03:00;55.57;;;32.67;;
62903;SDS011;49000;50.698;13.322;2022-08-20T00:05:30;54.87;;;32.40;;
62903;SDS011;49000;50.698;13.322;2022-08-20T00:08:04;38.87;;;26.43;;
62903;SDS011;49000;50.698;13.322;2022-08-20T00:10:32;52.00;;;30.47;;
62903;SDS011;49000;50.698;13.322;2022-08-20T00:12:59;42.47;;;27.47;;
62903;SDS011;49000;50.698;13.322;2022-08-20T00:15:27;49.33;;;30.23;;
62903;SDS011;49000;50.698;13.322;2022-08-20T00:17:56;37.30;;;24.87;;
62903;SDS011;49000;50.698;13.322;2022-08-20T00:20:22;48.03;;;29.80;;
62903;SDS011;49000;50.698;13.322;2022-08-20T00:22:50;49.30;;;29.50;;
62903;SDS011;49000;50.698;13.322;2022-08-20T00:25:16;41.53;;;26.27;;
62903;SDS011;49000;50.698;13.322;2022-08-20T00:27:42;46.23;;;30.43;;
62903;SDS011;49000;50.698;13.322;2022-08-20T00:30:09;43.23;;;27.43;;
62903;SDS011;49000;50.698;13.322;2022-08-20T00:32:52;45.43;;;29.10;;
62903;SDS011;49000;50.698;13.322;2022-08-20T00:35:20;39.50;;;26.97;;
62903;SDS011;49000;50.698;13.322;2022-08-20T00:37:48;45.57;;;28.20;;
62903;SDS011;49000;50.698;13.322;2022-08-20T00:40:16;51.13;;;31.07;;
62903;SDS011;49000;50.698;13.322;2022-08-20T00:42:45;43.80;;;27.50;;
62903;SDS011;49000;50.698;13.322;2022-08-20T00:45:12;48.83;;;29.80;;
62903;SDS011;49000;50.698;13.322;2022-08-20T00:47:40;42.27;;;28.87;;
62903;SDS011;49000;50.698;13.322;2022-08-20T00:50:19;39.47;;;26.07;;
62903;SDS011;49000;50.698;13.322;2022-08-20T00:52:48;56.40;;;32.57;;
62903;SDS011;49000;50.698;13.322;2022-08-20T00:55:17;44.47;;;29.33;;
62903;SDS011;49000;50.698;13.322;2022-08-20T00:57:46;49.30;;;32.20;;
62903;SDS011;49000;50.698;13.322;2022-08-20T01:00:19;55.57;;;33.67;;
62903;SDS011;49000;50.698;13.322;2022-08-20T01:02:48;60.13;;;33.10;;
62903;SDS011;49000;50.698;13.322;2022-08-20T01:05:14;49.77;;;31.60;;
62903;SDS011;49000;50.698;13.322;2022-08-20T01:07:40;54.30;;;32.87;;
62903;SDS011;49000;50.698;13.322;2022-08-20T01:10:10;54.57;;;33.33;;
62903;SDS011;49000;50.698;13.322;2022-08-20T01:12:42;51.43;;;33.43;;
62903;SDS011;49000;50.698;13.322;2022-08-20T01:15:10;64.50;;;35.60;;
62903;SDS011;49000;50.698;13.322;2022-08-20T01:17:40;62.73;;;34.17;;
62903;SDS011;49000;50.698;13.322;2022-08-20T01:20:10;56.13;;;33.87;;
62903;SDS011;49000;50.698;13.322;2022-08-20T01:22:54;51.90;;;33.03;;
62903;SDS011;49000;50.698;13.322;2022-08-20T01:25:51;50.10;;;30.93;;
62903;SDS011;49000;50.698;13.322;2022-08-20T01:28:24;39.77;;;28.63;;
62903;SDS011;49000;50.698;13.322;2022-08-20T01:30:53;50.23;;;31.27;;
62903;SDS011;49000;50.698;13.322;2022-08-20T01:33:20;54.33;;;33.73;;
62903;SDS011;49000;50.698;13.322;2022-08-20T01:35:46;44.10;;;28.80;;
62903;SDS011;49000;50.698;13.322;2022-08-20T01:38:14;42.70;;;29.53;;
62903;SDS011;49000;50.698;13.322;2022-08-20T01:43:15;47.80;;;29.90;;
62903;SDS011;49000;50.698;13.322;2022-08-20T01:45:41;57.27;;;30.50;;
62903;SDS011;49000;50.698;13.322;2022-08-20T01:48:07;42.57;;;27.80;;
62903;SDS011;49000;50.698;13.322;2022-08-20T01:50:32;42.67;;;26.63;;
62903;SDS011;49000;50.698;13.322;2022-08-20T01:53:03;47.60;;;28.77;;
62903;SDS011;49000;50.698;13.322;2022-08-20T01:55:35;41.37;;;25.50;;
62903;SDS011;49000;50.698;13.322;2022-08-20T01:58:01;37.60;;;24.70;;
62903;SDS011;49000;50.698;13.322;2022-08-20T02:00:27;34.67;;;22.37;;
62903;SDS011;49000;50.698;13.322;2022-08-20T02:02:52;29.80;;;19.87;;
62903;SDS011;49000;50.698;13.322;2022-08-20T02:05:18;25.63;;;17.73;;
62903;SDS011;49000;50.698;13.322;2022-08-20T02:07:44;25.10;;;16.77;;
62903;SDS011;49000;50.698;13.322;2022-08-20T02:10:11;19.17;;;14.90;;
62903;SDS011;49000;50.698;13.322;2022-08-20T02:12:39;15.37;;;12.90;;
62903;SDS011;49000;50.698;13.322;2022-08-20T02:15:05;11.60;;;9.50;;
62903;SDS011;49000;50.698;13.322;2022-08-20T02:17:34;11.53;;;10.33;;
62903;SDS011;49000;50.698;13.322;2022-08-20T02:20:03;10.03;;;8.50;;
62903;SDS011;49000;50.698;13.322;2022-08-20T02:22:43;11.93;;;9.10;;
62903;SDS011;49000;50.698;13.322;2022-08-20T02:25:19;9.37;;;8.03;;
62903;SDS011;49000;50.698;13.322;2022-08-20T02:27:47;9.63;;;8.27;;
62903;SDS011;49000;50.698;13.322;2022-08-20T02:30:15;9.83;;;8.47;;
62903;SDS011;49000;50.698;13.322;2022-08-20T02:32:58;9.97;;;8.13;;
62903;SDS011;49000;50.698;13.322;2022-08-20T02:35:25;7.87;;;7.07;;
62903;SDS011;49000;50.698;13.322;2022-08-20T02:37:51;11.07;;;9.10;;
62903;SDS011;49000;50.698;13.322;2022-08-20T02:40:18;8.53;;;7.57;;
62903;SDS011;49000;50.698;13.322;2022-08-20T02:42:45;9.63;;;7.30;;
62903;SDS011;49000;50.698;13.322;2022-08-20T02:45:12;9.80;;;8.23;;
62903;SDS011;49000;50.698;13.322;2022-08-20T02:47:39;7.73;;;6.87;;
62903;SDS011;49000;50.698;13.322;2022-08-20T02:50:06;9.30;;;7.50;;
62903;SDS011;49000;50.698;13.322;2022-08-20T02:52:35;8.83;;;7.37;;
62903;SDS011;49000;50.698;13.322;2022-08-20T02:55:00;8.13;;;6.77;;
62903;SDS011;49000;50.698;13.322;2022-08-20T02:57:26;7.80;;;6.77;;
62903;SDS011;49000;50.698;13.322;2022-08-20T02:59:52;7.93;;;7.13;;
62903;SDS011;49000;50.698;13.322;2022-08-20T03:02:18;8.83;;;7.23;;
62903;SDS011;49000;50.698;13.322;2022-08-20T03:04:43;8.87;;;7.83;;
62903;SDS011;49000;50.698;13.322;2022-08-20T03:07:09;12.73;;;8.90;;
62903;SDS011;49000;50.698;13.322;2022-08-20T03:09:35;9.47;;;8.40;;
62903;SDS011;49000;50.698;13.322;2022-08-20T03:12:02;10.83;;;8.80;;
62903;SDS011;49000;50.698;13.322;2022-08-20T03:14:30;16.27;;;11.73;;
62903;SDS011;49000;50.698;13.322;2022-08-20T03:16:56;20.57;;;13.77;;
62903;SDS011;49000;50.698;13.322;2022-08-20T03:19:21;20.43;;;14.70;;
62903;SDS011;49000;50.698;13.322;2022-08-20T03:21:47;23.00;;;15.67;;
62903;SDS011;49000;50.698;13.322;2022-08-20T03:24:12;19.73;;;13.93;;
62903;SDS011;49000;50.698;13.322;2022-08-20T03:26:38;21.60;;;15.37;;
62903;SDS011;49000;50.698;13.322;2022-08-20T03:29:03;17.93;;;13.40;;
62903;SDS011;49000;50.698;13.322;2022-08-20T03:31:29;26.67;;;17.17;;
62903;SDS011;49000;50.698;13.322;2022-08-20T03:33:55;21.60;;;15.00;;
62903;SDS011;49000;50.698;13.322;2022-08-20T03:36:21;22.43;;;16.03;;
62903;SDS011;49000;50.698;13.322;2022-08-20T03:38:47;23.43;;;16.80;;
62903;SDS011;49000;50.698;13.322;2022-08-20T03:41:13;21.60;;;15.67;;
62903;SDS011;49000;50.698;13.322;2022-08-20T03:43:39;20.23;;;15.53;;
62903;SDS011;49000;50.698;13.322;2022-08-20T03:46:05;24.53;;;16.73;;
62903;SDS011;49000;50.698;13.322;2022-08-20T03:48:32;19.50;;;14.50;;
62903;SDS011;49000;50.698;13.322;2022-08-20T03:50:58;27.00;;;19.37;;
62903;SDS011;49000;50.698;13.322;2022-08-20T03:53:25;24.43;;;17.37;;
62903;SDS011;49000;50.698;13.322;2022-08-20T03:55:55;25.20;;;18.83;;
62903;SDS011;49000;50.698;13.322;2022-08-20T03:58:21;24.57;;;17.10;;
62903;SDS011;49000;50.698;13.322;2022-08-20T04:00:49;23.93;;;17.97;;
62903;SDS011;49000;50.698;13.322;2022-08-20T04:03:15;28.70;;;20.20;;
62903;SDS011;49000;50.698;13.322;2022-08-20T04:05:41;26.07;;;18.83;;
62903;SDS011;49000;50.698;13.322;2022-08-20T04:08:40;26.03;;;19.73;;
62903;SDS011;49000;50.698;13.322;2022-08-20T04:10:59;20.77;;;17.10;;
62903;SDS011;49000;50.698;13.322;2022-08-20T04:13:25;19.83;;;16.03;;
62903;SDS011;49000;50.698;13.322;2022-08-20T04:15:52;20.17;;;15.23;;
62903;SDS011;49000;50.698;13.322;2022-08-20T04:18:21;16.70;;;13.97;;
62903;SDS011;49000;50.698;13.322;2022-08-20T04:20:50;17.07;;;13.10;;
62903;SDS011;49000;50.698;13.322;2022-08-20T04:23:16;20.30;;;14.77;;
62903;SDS011;49000;50.698;13.322;2022-08-20T04:25:43;23.60;;;15.73;;
62903;SDS011;49000;50.698;13.322;2022-08-20T04:28:10;16.90;;;13.17;;
62903;SDS011;49000;50.698;13.322;2022-08-20T04:30:40;17.03;;;13.10;;
62903;SDS011;49000;50.698;13.322;2022-08-20T04:33:06;16.13;;;12.47;;
62903;SDS011;49000;50.698;13.322;2022-08-20T04:35:32;12.47;;;11.17;;
62903;SDS011;49000;50.698;13.322;2022-08-20T04:38:02;12.43;;;10.90;;
62903;SDS011;49000;50.698;13.322;2022-08-20T04:40:30;13.70;;;10.23;;
62903;SDS011;49000;50.698;13.322;2022-08-20T04:43:15;11.87;;;10.63;;
62903;SDS011;49000;50.698;13.322;2022-08-20T04:45:41;11.17;;;9.93;;
62903;SDS011;49000;50.698;13.322;2022-08-20T04:48:07;12.90;;;10.43;;
62903;SDS011;49000;50.698;13.322;2022-08-20T04:50:34;12.90;;;10.17;;
62903;SDS011;49000;50.698;13.322;2022-08-20T04:53:04;12.17;;;10.20;;
62903;SDS011;49000;50.698;13.322;2022-08-20T04:55:32;11.53;;;10.17;;
62903;SDS011;49000;50.698;13.322;2022-08-20T04:58:06;13.40;;;10.90;;
62903;SDS011;49000;50.698;13.322;2022-08-20T05:00:36;13.10;;;10.67;;
62903;SDS011;49000;50.698;13.322;2022-08-20T05:03:03;12.70;;;10.17;;
62903;SDS011;49000;50.698;13.322;2022-08-20T05:05:31;12.23;;;10.40;;
62903;SDS011;49000;50.698;13.322;2022-08-20T05:07:58;12.77;;;10.90;;
62903;SDS011;49000;50.698;13.322;2022-08-20T05:10:24;14.90;;;11.50;;
62903;SDS011;49000;50.698;13.322;2022-08-20T05:12:50;14.50;;;12.90;;
62903;SDS011;49000;50.698;13.322;2022-08-20T05:15:16;13.57;;;11.37;;
62903;SDS011;49000;50.698;13.322;2022-08-20T05:17:41;14.37;;;12.53;;
62903;SDS011;49000;50.698;13.322;2022-08-20T05:20:09;15.70;;;12.00;;
62903;SDS011;49000;50.698;13.322;2022-08-20T05:22:37;12.33;;;10.83;;
62903;SDS011;49000;50.698;13.322;2022-08-20T05:25:03;11.40;;;10.20;;
62903;SDS011;49000;50.698;13.322;2022-08-20T05:27:29;14.70;;;10.27;;
62903;SDS011;49000;50.698;13.322;2022-08-20T05:29:58;11.43;;;9.37;;
62903;SDS011;49000;50.698;13.322;2022-08-20T05:32:31;11.67;;;9.80;;
62903;SDS011;49000;50.698;13.322;2022-08-20T05:34:57;11.70;;;9.93;;
62903;SDS011;49000;50.698;13.322;2022-08-20T05:37:23;12.33;;;10.17;;
62903;SDS011;49000;50.698;13.322;2022-08-20T05:39:48;12.60;;;10.00;;
62903;SDS011;49000;50.698;13.322;2022-08-20T05:42:14;13.17;;;8.13;;
62903;SDS011;49000;50.698;13.322;2022-08-20T05:44:39;10.60;;;9.47;;
62903;SDS011;49000;50.698;13.322;2022-08-20T05:47:05;10.80;;;8.63;;
62903;SDS011;49000;50.698;13.322;2022-08-20T05:49:30;9.50;;;8.50;;
62903;SDS011;49000;50.698;13.322;2022-08-20T05:51:57;8.83;;;7.93;;
62903;SDS011;49000;50.698;13.322;2022-08-20T05:54:23;10.07;;;8.93;;
62903;SDS011;49000;50.698;13.322;2022-08-20T05:56:49;8.60;;;7.67;;
62903;SDS011;49000;50.698;13.322;2022-08-20T05:59:15;7.77;;;6.97;;
62903;SDS011;49000;50.698;13.322;2022-08-20T06:01:41;8.40;;;7.43;;
62903;SDS011;49000;50.698;13.322;2022-08-20T06:04:07;8.60;;;7.13;;
62903;SDS011;49000;50.698;13.322;2022-08-20T06:06:49;9.80;;;6.97;;
62903;SDS011;49000;50.698;13.322;2022-08-20T06:09:16;7.90;;;7.10;;
62903;SDS011;49000;50.698;13.322;2022-08-20T06:11:44;7.87;;;7.07;;
62903;SDS011;49000;50.698;13.322;2022-08-20T06:14:09;8.20;;;7.20;;
62903;SDS011;49000;50.698;13.322;2022-08-20T06:16:35;7.63;;;6.53;;
62903;SDS011;49000;50.698;13.322;2022-08-20T06:19:00;6.13;;;5.53;;
62903;SDS011;49000;50.698;13.322;2022-08-20T06:21:26;7.40;;;6.57;;
62903;SDS011;49000;50.698;13.322;2022-08-20T06:23:51;8.17;;;6.83;;
62903;SDS011;49000;50.698;13.322;2022-08-20T06:26:17;6.80;;;6.20;;
62903;SDS011;49000;50.698;13.322;2022-08-20T06:28:43;8.27;;;7.30;;
62903;SDS011;49000;50.698;13.322;2022-08-20T06:31:08;7.40;;;6.70;;
62903;SDS011;49000;50.698;13.322;2022-08-20T06:33:35;9.37;;;8.33;;
62903;SDS011;49000;50.698;13.322;2022-08-20T06:36:01;7.97;;;6.97;;
62903;SDS011;49000;50.698;13.322;2022-08-20T06:38:27;8.97;;;7.43;;
62903;SDS011;49000;50.698;13.322;2022-08-20T06:40:52;6.90;;;6.20;;
62903;SDS011;49000;50.698;13.322;2022-08-20T06:43:18;7.77;;;6.77;;
62903;SDS011;49000;50.698;13.322;2022-08-20T06:45:43;7.43;;;6.57;;
62903;SDS011;49000;50.698;13.322;2022-08-20T06:48:09;6.73;;;6.03;;
62903;SDS011;49000;50.698;13.322;2022-08-20T06:50:38;9.43;;;8.13;;
62903;SDS011;49000;50.698;13.322;2022-08-20T06:53:10;10.00;;;8.17;;
62903;SDS011;49000;50.698;13.322;2022-08-20T06:55:38;10.57;;;9.30;;
62903;SDS011;49000;50.698;13.322;2022-08-20T06:58:06;9.10;;;8.20;;
62903;SDS011;49000;50.698;13.322;2022-08-20T07:00:34;10.17;;;8.77;;
62903;SDS011;49000;50.698;13.322;2022-08-20T07:03:00;10.17;;;9.03;;
62903;SDS011;49000;50.698;13.322;2022-08-20T07:05:27;10.00;;;8.43;;
62903;SDS011;49000;50.698;13.322;2022-08-20T07:07:54;10.67;;;8.23;;
62903;SDS011;49000;50.698;13.322;2022-08-20T07:10:20;11.30;;;9.90;;
62903;SDS011;49000;50.698;13.322;2022-08-20T07:12:47;12.13;;;10.83;;
62903;SDS011;49000;50.698;13.322;2022-08-20T07:15:15;8.80;;;7.67;;
62903;SDS011;49000;50.698;13.322;2022-08-20T07:17:46;12.73;;;10.43;;
62903;SDS011;49000;50.698;13.322;2022-08-20T07:20:17;12.40;;;10.40;;
62903;SDS011;49000;50.698;13.322;2022-08-20T07:22:43;12.10;;;10.77;;
62903;SDS011;49000;50.698;13.322;2022-08-20T07:25:10;12.13;;;10.17;;
62903;SDS011;49000;50.698;13.322;2022-08-20T07:27:38;15.93;;;10.47;;
62903;SDS011;49000;50.698;13.322;2022-08-20T07:30:05;10.10;;;8.87;;
62903;SDS011;49000;50.698;13.322;2022-08-20T07:32:51;12.10;;;9.57;;
62903;SDS011;49000;50.698;13.322;2022-08-20T07:35:17;10.80;;;9.70;;
62903;SDS011;49000;50.698;13.322;2022-08-20T07:37:45;9.93;;;8.90;;
62903;SDS011;49000;50.698;13.322;2022-08-20T07:40:13;11.90;;;9.67;;
62903;SDS011;49000;50.698;13.322;2022-08-20T07:42:44;11.80;;;9.93;;
62903;SDS011;49000;50.698;13.322;2022-08-20T07:45:10;10.80;;;9.33;;
62903;SDS011;49000;50.698;13.322;2022-08-20T07:47:37;10.40;;;9.23;;
62903;SDS011;49000;50.698;13.322;2022-08-20T07:50:06;11.90;;;9.03;;
62903;SDS011;49000;50.698;13.322;2022-08-20T07:52:33;11.90;;;10.27;;
62903;SDS011;49000;50.698;13.322;2022-08-20T07:55:03;10.43;;;9.30;;
62903;SDS011;49000;50.698;13.322;2022-08-20T07:57:30;11.70;;;9.73;;
62903;SDS011;49000;50.698;13.322;2022-08-20T07:59:55;11.23;;;9.97;;
62903;SDS011;49000;50.698;13.322;2022-08-20T08:02:23;11.60;;;9.90;;
62903;SDS011;49000;50.698;13.322;2022-08-20T08:04:49;9.97;;;8.97;;
62903;SDS011;49000;50.698;13.322;2022-08-20T08:07:15;11.03;;;9.37;;
62903;SDS011;49000;50.698;13.322;2022-08-20T08:09:40;10.60;;;9.50;;
62903;SDS011;49000;50.698;13.322;2022-08-20T08:12:08;10.30;;;8.73;;
62903;SDS011;49000;50.698;13.322;2022-08-20T08:14:37;9.67;;;8.67;;
62903;SDS011;49000;50.698;13.322;2022-08-20T08:17:04;9.60;;;8.60;;
62903;SDS011;49000;50.698;13.322;2022-08-20T08:19:32;8.30;;;7.50;;
62903;SDS011;49000;50.698;13.322;2022-08-20T08:22:06;11.47;;;10.20;;
62903;SDS011;49000;50.698;13.322;2022-08-20T08:24:38;12.43;;;10.07;;
62903;SDS011;49000;50.698;13.322;2022-08-20T08:27:04;11.47;;;10.27;;
62903;SDS011;49000;50.698;13.322;2022-08-20T08:29:32;12.67;;;11.13;;
62903;SDS011;49000;50.698;13.322;2022-08-20T08:31:59;12.07;;;10.77;;
62903;SDS011;49000;50.698;13.322;2022-08-20T08:34:30;12.47;;;10.50;;
62903;SDS011;49000;50.698;13.322;2022-08-20T08:36:56;14.97;;;11.47;;
62903;SDS011;49000;50.698;13.322;2022-08-20T08:39:22;10.37;;;9.30;;
62903;SDS011;49000;50.698;13.322;2022-08-20T08:41:49;14.23;;;12.10;;
62903;SDS011;49000;50.698;13.322;2022-08-20T08:44:17;12.50;;;11.20;;
62903;SDS011;49000;50.698;13.322;2022-08-20T08:46:49;12.60;;;11.30;;
62903;SDS011;49000;50.698;13.322;2022-08-20T08:49:21;14.87;;;13.33;;
62903;SDS011;49000;50.698;13.322;2022-08-20T08:51:53;16.90;;;14.77;;
62903;SDS011;49000;50.698;13.322;2022-08-20T08:54:23;17.37;;;14.73;;
62903;SDS011;49000;50.698;13.322;2022-08-20T08:56:51;15.70;;;13.63;;
62903;SDS011;49000;50.698;13.322;2022-08-20T08:59:17;15.13;;;13.27;;
62903;SDS011;49000;50.698;13.322;2022-08-20T09:01:45;18.17;;;15.70;;
62903;SDS011;49000;50.698;13.322;2022-08-20T09:04:13;17.53;;;15.63;;
62903;SDS011;49000;50.698;13.322;2022-08-20T09:06:40;15.20;;;13.03;;
62903;SDS011;49000;50.698;13.322;2022-08-20T09:09:10;17.97;;;15.57;;
62903;SDS011;49000;50.698;13.322;2022-08-20T09:11:48;14.97;;;13.07;;
62903;SDS011;49000;50.698;13.322;2022-08-20T09:14:16;15.20;;;13.63;;
62903;SDS011;49000;50.698;13.322;2022-08-20T09:16:42;17.23;;;14.57;;
62903;SDS011;49000;50.698;13.322;2022-08-20T09:19:07;16.67;;;13.70;;
62903;SDS011;49000;50.698;13.322;2022-08-20T09:21:33;15.70;;;13.93;;
62903;SDS011;49000;50.698;13.322;2022-08-20T09:23:58;20.40;;;16.20;;
62903;SDS011;49000;50.698;13.322;2022-08-20T09:26:24;18.10;;;15.63;;
62903;SDS011;49000;50.698;13.322;2022-08-20T09:28:49;18.17;;;14.03;;
62903;SDS011;49000;50.698;13.322;2022-08-20T09:31:15;17.00;;;14.90;;
62903;SDS011;49000;50.698;13.322;2022-08-20T09:33:41;19.60;;;15.10;;
62903;SDS011;49000;50.698;13.322;2022-08-20T09:36:06;15.63;;;13.33;;
62903;SDS011;49000;50.698;13.322;2022-08-20T09:38:32;17.47;;;13.87;;
62903;SDS011;49000;50.698;13.322;2022-08-20T09:40:57;19.57;;;14.57;;
62903;SDS011;49000;50.698;13.322;2022-08-20T09:43:23;18.47;;;14.77;;
62903;SDS011;49000;50.698;13.322;2022-08-20T09:45:48;17.57;;;15.30;;
62903;SDS011;49000;50.698;13.322;2022-08-20T09:48:14;20.63;;;17.03;;
62903;SDS011;49000;50.698;13.322;2022-08-20T09:50:40;17.50;;;14.77;;
62903;SDS011;49000;50.698;13.322;2022-08-20T09:53:09;16.80;;;14.67;;
62903;SDS011;49000;50.698;13.322;2022-08-20T09:55:36;18.67;;;15.33;;
62903;SDS011;49000;50.698;13.322;2022-08-20T09:58:07;17.23;;;15.17;;
62903;SDS011;49000;50.698;13.322;2022-08-20T10:00:45;17.80;;;14.77;;
62903;SDS011;49000;50.698;13.322;2022-08-20T10:03:11;18.97;;;15.03;;
62903;SDS011;49000;50.698;13.322;2022-08-20T10:05:36;19.17;;;16.13;;
62903;SDS011;49000;50.698;13.322;2022-08-20T10:08:06;21.03;;;17.53;;
62903;SDS011;49000;50.698;13.322;2022-08-20T10:10:32;17.73;;;15.13;;
62903;SDS011;49000;50.698;13.322;2022-08-20T10:12:58;17.03;;;15.17;;
62903;SDS011;49000;50.698;13.322;2022-08-20T10:15:23;18.97;;;15.43;;
62903;SDS011;49000;50.698;13.322;2022-08-20T10:17:49;16.80;;;15.00;;
62903;SDS011;49000;50.698;13.322;2022-08-20T10:20:15;17.87;;;15.00;;
62903;SDS011;49000;50.698;13.322;2022-08-20T10:22:42;18.10;;;14.87;;
62903;SDS011;49000;50.698;13.322;2022-08-20T10:25:08;16.70;;;12.87;;
62903;SDS011;49000;50.698;13.322;2022-08-20T10:27:34;18.13;;;15.23;;
62903;SDS011;49000;50.698;13.322;2022-08-20T10:30:01;16.17;;;13.73;;
62903;SDS011;49000;50.698;13.322;2022-08-20T10:32:27;14.67;;;12.63;;
62903;SDS011;49000;50.698;13.322;2022-08-20T10:34:53;17.03;;;15.00;;
62903;SDS011;49000;50.698;13.322;2022-08-20T10:37:20;18.50;;;16.23;;
62903;SDS011;49000;50.698;13.322;2022-08-20T10:39:47;16.90;;;14.43;;
62903;SDS011;49000;50.698;13.322;2022-08-20T10:42:12;17.23;;;15.10;;
62903;SDS011;49000;50.698;13.322;2022-08-20T10:44:38;18.63;;;15.17;;
62903;SDS011;49000;50.698;13.322;2022-08-20T10:47:23;16.17;;;14.03;;
62903;SDS011;49000;50.698;13.322;2022-08-20T10:49:52;19.37;;;15.67;;
62903;SDS011;49000;50.698;13.322;2022-08-20T10:52:19;19.07;;;15.87;;
62903;SDS011;49000;50.698;13.322;2022-08-20T10:54:45;17.00;;;14.87;;
62903;SDS011;49000;50.698;13.322;2022-08-20T10:57:12;14.63;;;13.10;;
62903;SDS011;49000;50.698;13.322;2022-08-20T10:59:40;18.40;;;16.40;;
62903;SDS011;49000;50.698;13.322;2022-08-20T11:02:07;16.27;;;14.10;;
62903;SDS011;49000;50.698;13.322;2022-08-20T11:04:33;17.83;;;15.90;;
62903;SDS011;49000;50.698;13.322;2022-08-20T11:07:08;18.17;;;14.47;;
62903;SDS011;49000;50.698;13.322;2022-08-20T11:09:35;17.70;;;15.07;;
62903;SDS011;49000;50.698;13.322;2022-08-20T11:12:01;19.37;;;15.43;;
62903;SDS011;49000;50.698;13.322;2022-08-20T11:14:26;19.87;;;15.63;;
62903;SDS011;49000;50.698;13.322;2022-08-20T11:16:52;17.23;;;15.10;;
62903;SDS011;49000;50.698;13.322;2022-08-20T11:19:17;15.33;;;13.73;;
62903;SDS011;49000;50.698;13.322;2022-08-20T11:21:43;19.10;;;16.43;;
62903;SDS011;49000;50.698;13.322;2022-08-20T11:24:08;17.83;;;15.90;;
62903;SDS011;49000;50.698;13.322;2022-08-20T11:26:33;18.87;;;15.07;;
62903;SDS011;49000;50.698;13.322;2022-08-20T11:28:59;18.33;;;15.47;;
62903;SDS011;49000;50.698;13.322;2022-08-20T11:31:24;17.47;;;15.50;;
62903;SDS011;49000;50.698;13.322;2022-08-20T11:33:50;15.90;;;13.23;;
62903;SDS011;49000;50.698;13.322;2022-08-20T11:36:15;18.33;;;13.70;;
62903;SDS011;49000;50.698;13.322;2022-08-20T11:38:41;14.17;;;12.63;;
62903;SDS011;49000;50.698;13.322;2022-08-20T11:41:06;15.40;;;13.60;;
62903;SDS011;49000;50.698;13.322;2022-08-20T11:43:32;15.47;;;13.87;;
62903;SDS011;49000;50.698;13.322;2022-08-20T11:45:57;15.10;;;13.50;;
62903;SDS011;49000;50.698;13.322;2022-08-20T11:48:23;15.03;;;13.40;;
62903;SDS011;49000;50.698;13.322;2022-08-20T11:50:49;15.23;;;12.63;;
62903;SDS011;49000;50.698;13.322;2022-08-20T11:53:14;16.07;;;12.63;;
62903;SDS011;49000;50.698;13.322;2022-08-20T11:55:40;17.40;;;14.50;;
62903;SDS011;49000;50.698;13.322;2022-08-20T11:58:06;17.40;;;14.03;;
62903;SDS011;49000;50.698;13.322;2022-08-20T12:00:32;15.37;;;13.77;;
62903;SDS011;49000;50.698;13.322;2022-08-20T12:02:58;17.17;;;15.13;;
62903;SDS011;49000;50.698;13.322;2022-08-20T12:05:24;16.73;;;14.93;;
62903;SDS011;49000;50.698;13.322;2022-08-20T12:07:51;18.37;;;14.07;;
62903;SDS011;49000;50.698;13.322;2022-08-20T12:10:16;15.87;;;14.17;;
62903;SDS011;49000;50.698;13.322;2022-08-20T12:12:42;13.47;;;12.07;;
62903;SDS011;49000;50.698;13.322;2022-08-20T12:15:08;14.37;;;12.43;;
62903;SDS011;49000;50.698;13.322;2022-08-20T12:17:35;17.57;;;13.43;;
62903;SDS011;49000;50.698;13.322;2022-08-20T12:20:03;16.37;;;13.50;;
62903;SDS011;49000;50.698;13.322;2022-08-20T12:22:32;13.50;;;12.00;;
62903;SDS011;49000;50.698;13.322;2022-08-20T12:24:58;14.30;;;12.80;;
62903;SDS011;49000;50.698;13.322;2022-08-20T12:27:24;15.30;;;11.87;;
62903;SDS011;49000;50.698;13.322;2022-08-20T12:29:52;14.30;;;11.90;;
62903;SDS011;49000;50.698;13.322;2022-08-20T12:32:20;15.83;;;13.30;;
62903;SDS011;49000;50.698;13.322;2022-08-20T12:34:47;14.97;;;12.97;;
62903;SDS011;49000;50.698;13.322;2022-08-20T12:37:14;13.80;;;11.07;;
62903;SDS011;49000;50.698;13.322;2022-08-20T12:39:43;12.17;;;10.97;;
62903;SDS011;49000;50.698;13.322;2022-08-20T12:42:10;14.70;;;13.10;;
62903;SDS011;49000;50.698;13.322;2022-08-20T12:44:37;13.73;;;12.33;;
62903;SDS011;49000;50.698;13.322;2022-08-20T12:47:10;13.37;;;11.97;;
62903;SDS011;49000;50.698;13.322;2022-08-20T12:49:41;11.93;;;10.73;;
62903;SDS011;49000;50.698;13.322;2022-08-20T12:52:11;12.63;;;10.50;;
62903;SDS011;49000;50.698;13.322;2022-08-20T12:54:38;14.00;;;11.50;;
62903;SDS011;49000;50.698;13.322;2022-08-20T12:57:04;13.17;;;10.20;;
62903;SDS011;49000;50.698;13.322;2022-08-20T12:59:30;11.10;;;9.97;;
62903;SDS011;49000;50.698;13.322;2022-08-20T13:01:55;10.43;;;9.30;;
62903;SDS011;49000;50.698;13.322;2022-08-20T13:04:21;12.70;;;10.80;;
62903;SDS011;49000;50.698;13.322;2022-08-20T13:06:47;11.93;;;9.83;;
62903;SDS011;49000;50.698;13.322;2022-08-20T13:09:13;12.73;;;11.53;;
62903;SDS011;49000;50.698;13.322;2022-08-20T13:11:39;12.57;;;9.90;;
62903;SDS011;49000;50.698;13.322;2022-08-20T13:14:05;11.53;;;10.33;;
62903;SDS011;49000;50.698;13.322;2022-08-20T13:16:31;10.90;;;9.60;;
62903;SDS011;49000;50.698;13.322;2022-08-20T13:18:57;11.53;;;10.33;;
62903;SDS011;49000;50.698;13.322;2022-08-20T13:21:22;11.43;;;10.33;;
62903;SDS011;49000;50.698;13.322;2022-08-20T13:23:48;13.83;;;12.07;;
62903;SDS011;49000;50.698;13.322;2022-08-20T13:26:13;11.47;;;10.27;;
62903;SDS011;49000;50.698;13.322;2022-08-20T13:28:38;10.63;;;9.63;;
62903;SDS011;49000;50.698;13.322;2022-08-20T13:31:04;12.40;;;11.03;;
62903;SDS011;49000;50.698;13.322;2022-08-20T13:33:30;12.20;;;10.57;;
62903;SDS011;49000;50.698;13.322;2022-08-20T13:35:55;13.07;;;11.17;;
62903;SDS011;49000;50.698;13.322;2022-08-20T13:38:21;11.53;;;10.37;;
62903;SDS011;49000;50.698;13.322;2022-08-20T13:40:47;11.87;;;10.77;;
62903;SDS011;49000;50.698;13.322;2022-08-20T13:43:12;12.27;;;10.97;;
62903;SDS011;49000;50.698;13.322;2022-08-20T13:45:38;12.40;;;11.20;;
62903;SDS011;49000;50.698;13.322;2022-08-20T13:48:05;12.73;;;11.40;;
62903;SDS011;49000;50.698;13.322;2022-08-20T13:50:31;13.00;;;10.30;;
62903;SDS011;49000;50.698;13.322;2022-08-20T13:52:57;12.63;;;10.33;;
62903;SDS011;49000;50.698;13.322;2022-08-20T13:55:23;12.23;;;10.93;;
62903;SDS011;49000;50.698;13.322;2022-08-20T13:57:50;13.17;;;11.77;;
62903;SDS011;49000;50.698;13.322;2022-08-20T14:00:22;11.33;;;10.17;;
62903;SDS011;49000;50.698;13.322;2022-08-20T14:02:50;12.60;;;11.30;;
62903;SDS011;49000;50.698;13.322;2022-08-20T14:05:15;13.70;;;11.80;;
62903;SDS011;49000;50.698;13.322;2022-08-20T14:07:41;14.90;;;11.93;;
62903;SDS011;49000;50.698;13.322;2022-08-20T14:10:09;15.33;;;13.07;;
62903;SDS011;49000;50.698;13.322;2022-08-20T14:12:37;13.77;;;12.30;;
62903;SDS011;49000;50.698;13.322;2022-08-20T14:15:03;14.37;;;12.07;;
62903;SDS011;49000;50.698;13.322;2022-08-20T14:17:33;15.33;;;12.67;;